Terminal Aerodrome Forecast
Issued by NWS

Home | Current Version | Previous Version | Text Only | Print | Product List | Glossary On
Versions: 1 2 3 4 5 6 7 8 9 10 11 12 13 14
000
FTUS45 KPSR 311100 RRA
TAFIPL
TAF
KIPL 311143Z 3112/0112 24003KT P6SM SCT070 BKN100
     FM311700 34006KT P6SM SCT070 BKN100
     FM312000 36006KT P6SM BKN050
     FM010000 31003KT P6SM SCT060=

USA.gov is the U.S. government's official web portal to all federal, state and local government web resources and services.